Details From LJLJ - Ljubljana
To LXGB - Gibraltar
Flight Number -
Tags Decoded
Created
Modified
Stats Distance 1,177 nm / 2,180 km
Max Altitude 0 ft / 0 m
Waypoints 3
Social Downloads 0
Likes 0
Share VATSIM

Download

Looking for another format? Having issues loading an existing format? Contact us
Advertisement - Login to hide

Notes

Decoded

Route

LJLJ DAAG LXGB

ID Type Via Altitude Latitude Longitude Leg Dist Tot Dist Heading (true) Name
O LJLJ APT - 0 ft / 0 m 46.23249˚ 14.44039˚ - 0 nm - -
DAAG APT - 0 ft / 0 m 36.69213˚ 3.17083˚ 763 nm 763 nm 225° / 218° -
O LXGB APT - 0 ft / 0 m 36.15080˚ -5.35977˚ 413 nm 1177 nm 268° / 263° -

Altitude Profile

Advertisement - Login to hide

Weather


0- 5 10 15 20 25 30 35+ Temperature / ° C

Clouds and Precipitation
Forecast for 2018-05-27 18:00 UTC. Updated an hour ago

Ground ~20,000 ft ~40,000 ft Winds

LJLJ

Details ICAO LJLJ (LJU)
Name LJUBLJANA
Region Slovenia
Timezone Europe/Ljubljana (UTC+2.0)
Stats Elevation 1,273 ft / 388 m (AMSL)
Location 46.223685° 14.457608°
Runways 1
Magnetic Variation 3.713° E

METAR

LJLJ 271800Z 29008KT 260V340 9999 -SHRA VCTS FEW040CB BKN120 15/14 Q1021 RETSRA BECMG SHRA

Decode

TAF

TAF LJLJ 271400Z 2715/2815 12005KT 9999 SCT040 TEMPO 2715/2722 SHRA SCT030TCU BKN050 PROB40 TEMPO 2715/2721 VRB15KT 6000 TSRA SCT030CB BKN040 BECMG 2719/2721 30003KT BECMG 2808/2810 13005KT TEMPO 2810/2815 SHRA SCT030TCU BKN050 PROB40 TEMPO 2812/2815 VRB15KT 6000 TSRA BKN035CB

Decode

Departure Runways

ID Width Length Bearing (true) Bearing (mag) Surface Threshold Offset Overrun Length
13 148 ft / 45 m 10,811 ft / 3,295 m 126.47° 122.76° Asphalt 0 ft / 0 m 0 ft / 0 m
31 148 ft / 45 m 10,811 ft / 3,295 m 306.49° 302.78° Asphalt 0 ft / 0 m 0 ft / 0 m

LXGB

Details ICAO LXGB (GIB)
Name Gibraltar
Region Gibralter
Timezone Europe/Gibraltar (UTC+2.0)
Stats Elevation 15 ft / 5 m (AMSL)
Location 36.151209° -5.349664°
Runways 1
Magnetic Variation 1.071° W

METAR

LXGB 271750Z 25013KT 9999 FEW040 22/12 Q1015 NOSIG

Decode

TAF

Not found

Destination Runways

ID Width Length Bearing (true) Bearing (mag) Surface Threshold Offset Overrun Length
27 151 ft / 46 m 5,992 ft / 1,826 m 267.56° 268.63° Asphalt 367 ft / 112 m 89 ft / 27 m
9 151 ft / 46 m 5,992 ft / 1,826 m 87.54° 88.61° Asphalt 299 ft / 91 m 52 ft / 16 m

Popular Alternatives